sensor_id;sensor_type;location;lat;lon;timestamp;pressure;altitude;pressure_sealevel;temperature;humidity
11878;BME280;5998;42.676;23.268;2022-07-06T00:02:06;94802.78;;;20.37;100.00
11878;BME280;5998;42.676;23.268;2022-07-06T00:04:33;94804.03;;;20.22;100.00
11878;BME280;5998;42.676;23.268;2022-07-06T00:07:00;94811.50;;;20.18;100.00
11878;BME280;5998;42.676;23.268;2022-07-06T00:09:26;94789.34;;;19.98;100.00
11878;BME280;5998;42.676;23.268;2022-07-06T00:11:55;94834.22;;;20.05;100.00
11878;BME280;5998;42.676;23.268;2022-07-06T00:14:21;94813.97;;;19.95;100.00
11878;BME280;5998;42.676;23.268;2022-07-06T00:16:48;94832.72;;;19.93;100.00
11878;BME280;5998;42.676;23.268;2022-07-06T00:19:15;94831.81;;;20.24;100.00
11878;BME280;5998;42.676;23.268;2022-07-06T00:21:42;94836.00;;;20.36;100.00
11878;BME280;5998;42.676;23.268;2022-07-06T00:24:09;94845.00;;;20.33;100.00
11878;BME280;5998;42.676;23.268;2022-07-06T00:26:35;94848.44;;;20.44;100.00
11878;BME280;5998;42.676;23.268;2022-07-06T00:29:03;94850.00;;;20.48;100.00
11878;BME280;5998;42.676;23.268;2022-07-06T00:31:30;94857.34;;;20.55;100.00
11878;BME280;5998;42.676;23.268;2022-07-06T00:33:57;94841.59;;;20.11;100.00
11878;BME280;5998;42.676;23.268;2022-07-06T00:36:23;94842.03;;;20.02;100.00
11878;BME280;5998;42.676;23.268;2022-07-06T00:38:50;94852.72;;;19.76;100.00
11878;BME280;5998;42.676;23.268;2022-07-06T00:41:17;94851.13;;;19.78;100.00
11878;BME280;5998;42.676;23.268;2022-07-06T00:43:50;94860.53;;;19.70;100.00
11878;BME280;5998;42.676;23.268;2022-07-06T00:46:18;94858.63;;;19.60;100.00
11878;BME280;5998;42.676;23.268;2022-07-06T00:48:45;94871.94;;;19.44;100.00
11878;BME280;5998;42.676;23.268;2022-07-06T00:51:12;94845.84;;;19.18;100.00
11878;BME280;5998;42.676;23.268;2022-07-06T00:53:40;94833.75;;;19.12;100.00
11878;BME280;5998;42.676;23.268;2022-07-06T00:56:07;94855.56;;;19.23;100.00
11878;BME280;5998;42.676;23.268;2022-07-06T00:58:33;94834.91;;;19.25;100.00
11878;BME280;5998;42.676;23.268;2022-07-06T01:01:00;94838.00;;;19.34;100.00
11878;BME280;5998;42.676;23.268;2022-07-06T01:03:28;94825.53;;;19.44;100.00
11878;BME280;5998;42.676;23.268;2022-07-06T01:05:55;94813.34;;;19.59;100.00
11878;BME280;5998;42.676;23.268;2022-07-06T01:08:22;94815.28;;;19.66;100.00
11878;BME280;5998;42.676;23.268;2022-07-06T01:10:49;94800.84;;;19.62;100.00
11878;BME280;5998;42.676;23.268;2022-07-06T01:13:16;94801.25;;;19.60;100.00
11878;BME280;5998;42.676;23.268;2022-07-06T01:15:43;94827.84;;;19.49;100.00
11878;BME280;5998;42.676;23.268;2022-07-06T01:18:10;94802.84;;;19.58;100.00
11878;BME280;5998;42.676;23.268;2022-07-06T01:20:39;94803.63;;;19.58;100.00
11878;BME280;5998;42.676;23.268;2022-07-06T01:23:06;94800.94;;;19.40;100.00
11878;BME280;5998;42.676;23.268;2022-07-06T01:25:33;94767.81;;;19.24;100.00
11878;BME280;5998;42.676;23.268;2022-07-06T01:27:59;94814.97;;;19.42;100.00
11878;BME280;5998;42.676;23.268;2022-07-06T01:30:26;94774.06;;;19.18;100.00
11878;BME280;5998;42.676;23.268;2022-07-06T01:32:53;94809.09;;;19.48;100.00
11878;BME280;5998;42.676;23.268;2022-07-06T01:35:20;94819.28;;;19.33;100.00
11878;BME280;5998;42.676;23.268;2022-07-06T01:37:48;94806.47;;;19.19;100.00
11878;BME280;5998;42.676;23.268;2022-07-06T01:40:15;94788.16;;;19.06;100.00
11878;BME280;5998;42.676;23.268;2022-07-06T01:42:41;94818.47;;;19.50;100.00
11878;BME280;5998;42.676;23.268;2022-07-06T01:45:09;94815.25;;;19.73;100.00
11878;BME280;5998;42.676;23.268;2022-07-06T01:47:36;94802.00;;;19.68;100.00
11878;BME280;5998;42.676;23.268;2022-07-06T01:50:05;94809.00;;;19.72;100.00
11878;BME280;5998;42.676;23.268;2022-07-06T01:52:32;94808.22;;;19.75;100.00
11878;BME280;5998;42.676;23.268;2022-07-06T01:55:00;94794.41;;;20.03;100.00
11878;BME280;5998;42.676;23.268;2022-07-06T01:57:27;94774.59;;;19.85;100.00
11878;BME280;5998;42.676;23.268;2022-07-06T01:59:54;94802.94;;;20.13;100.00
11878;BME280;5998;42.676;23.268;2022-07-06T02:02:21;94801.72;;;20.24;100.00
11878;BME280;5998;42.676;23.268;2022-07-06T02:04:47;94793.09;;;20.22;100.00
11878;BME280;5998;42.676;23.268;2022-07-06T02:07:14;94789.59;;;20.25;100.00
11878;BME280;5998;42.676;23.268;2022-07-06T02:09:41;94786.88;;;20.18;100.00
11878;BME280;5998;42.676;23.268;2022-07-06T02:12:09;94786.81;;;20.32;100.00
11878;BME280;5998;42.676;23.268;2022-07-06T02:14:36;94782.94;;;20.30;100.00
11878;BME280;5998;42.676;23.268;2022-07-06T02:17:03;94754.91;;;20.08;100.00
11878;BME280;5998;42.676;23.268;2022-07-06T02:19:29;94742.44;;;20.07;100.00
11878;BME280;5998;42.676;23.268;2022-07-06T02:21:56;94739.22;;;20.19;100.00
11878;BME280;5998;42.676;23.268;2022-07-06T02:24:23;94779.72;;;20.38;100.00
11878;BME280;5998;42.676;23.268;2022-07-06T02:26:50;94775.03;;;20.39;100.00
11878;BME280;5998;42.676;23.268;2022-07-06T02:29:18;94767.97;;;20.41;100.00
11878;BME280;5998;42.676;23.268;2022-07-06T02:31:45;94758.63;;;20.39;100.00
11878;BME280;5998;42.676;23.268;2022-07-06T02:34:11;94745.44;;;20.23;100.00
11878;BME280;5998;42.676;23.268;2022-07-06T02:36:38;94762.91;;;20.43;100.00
11878;BME280;5998;42.676;23.268;2022-07-06T02:39:05;94766.56;;;20.71;100.00
11878;BME280;5998;42.676;23.268;2022-07-06T02:41:32;94733.75;;;20.67;100.00
11878;BME280;5998;42.676;23.268;2022-07-06T02:43:58;94748.91;;;20.79;100.00
11878;BME280;5998;42.676;23.268;2022-07-06T02:46:26;94753.59;;;20.75;100.00
11878;BME280;5998;42.676;23.268;2022-07-06T02:48:53;94756.88;;;20.63;100.00
11878;BME280;5998;42.676;23.268;2022-07-06T02:51:20;94761.69;;;20.44;100.00
11878;BME280;5998;42.676;23.268;2022-07-06T02:53:46;94767.41;;;20.64;100.00
11878;BME280;5998;42.676;23.268;2022-07-06T02:56:13;94761.78;;;20.78;100.00
11878;BME280;5998;42.676;23.268;2022-07-06T02:58:40;94758.78;;;20.66;100.00
11878;BME280;5998;42.676;23.268;2022-07-06T03:01:06;94759.03;;;20.82;100.00
11878;BME280;5998;42.676;23.268;2022-07-06T03:03:35;94753.97;;;20.77;100.00
11878;BME280;5998;42.676;23.268;2022-07-06T03:06:01;94759.69;;;20.93;100.00
11878;BME280;5998;42.676;23.268;2022-07-06T03:08:28;94750.38;;;20.87;100.00
11878;BME280;5998;42.676;23.268;2022-07-06T03:10:55;94754.38;;;20.79;100.00
11878;BME280;5998;42.676;23.268;2022-07-06T03:13:21;94761.00;;;20.78;100.00
11878;BME280;5998;42.676;23.268;2022-07-06T03:15:48;94767.97;;;20.86;100.00
11878;BME280;5998;42.676;23.268;2022-07-06T03:18:15;94766.84;;;20.80;100.00
11878;BME280;5998;42.676;23.268;2022-07-06T03:20:43;94772.03;;;20.71;100.00
11878;BME280;5998;42.676;23.268;2022-07-06T03:23:09;94765.31;;;20.79;100.00
11878;BME280;5998;42.676;23.268;2022-07-06T03:25:36;94772.38;;;20.76;100.00
11878;BME280;5998;42.676;23.268;2022-07-06T03:28:03;94767.25;;;20.82;100.00
11878;BME280;5998;42.676;23.268;2022-07-06T03:30:30;94738.00;;;20.72;100.00
11878;BME280;5998;42.676;23.268;2022-07-06T03:32:57;94778.31;;;21.12;100.00
11878;BME280;5998;42.676;23.268;2022-07-06T03:35:23;94777.88;;;21.13;100.00
11878;BME280;5998;42.676;23.268;2022-07-06T03:37:52;94773.56;;;21.16;100.00
11878;BME280;5998;42.676;23.268;2022-07-06T03:40:18;94774.75;;;21.15;100.00
11878;BME280;5998;42.676;23.268;2022-07-06T03:42:45;94749.69;;;21.16;100.00
11878;BME280;5998;42.676;23.268;2022-07-06T03:45:12;94783.53;;;21.33;100.00
11878;BME280;5998;42.676;23.268;2022-07-06T03:47:39;94782.88;;;21.56;100.00
11878;BME280;5998;42.676;23.268;2022-07-06T03:50:07;94783.28;;;21.85;100.00
11878;BME280;5998;42.676;23.268;2022-07-06T03:52:34;94776.94;;;22.21;100.00
11878;BME280;5998;42.676;23.268;2022-07-06T03:55:07;94775.72;;;22.49;100.00
11878;BME280;5998;42.676;23.268;2022-07-06T03:57:34;94773.81;;;22.46;100.00
11878;BME280;5998;42.676;23.268;2022-07-06T04:00:01;94742.28;;;22.31;100.00
11878;BME280;5998;42.676;23.268;2022-07-06T04:02:27;94768.53;;;22.32;100.00
11878;BME280;5998;42.676;23.268;2022-07-06T04:04:54;94724.84;;;21.95;100.00
11878;BME280;5998;42.676;23.268;2022-07-06T04:07:21;94744.22;;;21.77;100.00
11878;BME280;5998;42.676;23.268;2022-07-06T04:09:48;94784.56;;;22.07;100.00
11878;BME280;5998;42.676;23.268;2022-07-06T04:12:16;94777.16;;;22.04;100.00
11878;BME280;5998;42.676;23.268;2022-07-06T04:14:43;94740.13;;;21.62;100.00
11878;BME280;5998;42.676;23.268;2022-07-06T04:17:10;94779.53;;;22.05;100.00
11878;BME280;5998;42.676;23.268;2022-07-06T04:19:50;94788.81;;;22.38;100.00
11878;BME280;5998;42.676;23.268;2022-07-06T04:22:17;94769.16;;;21.90;100.00
11878;BME280;5998;42.676;23.268;2022-07-06T04:24:44;94791.47;;;21.58;100.00
11878;BME280;5998;42.676;23.268;2022-07-06T04:27:11;94740.56;;;21.57;100.00
11878;BME280;5998;42.676;23.268;2022-07-06T04:29:39;94802.34;;;21.95;100.00
11878;BME280;5998;42.676;23.268;2022-07-06T04:32:06;94802.03;;;21.90;100.00
11878;BME280;5998;42.676;23.268;2022-07-06T04:34:33;94803.81;;;22.03;100.00
11878;BME280;5998;42.676;23.268;2022-07-06T04:37:00;94811.91;;;21.84;100.00
11878;BME280;5998;42.676;23.268;2022-07-06T04:39:26;94810.84;;;21.74;100.00
11878;BME280;5998;42.676;23.268;2022-07-06T04:41:56;94816.53;;;21.90;100.00
11878;BME280;5998;42.676;23.268;2022-07-06T04:44:23;94843.91;;;21.23;100.00
11878;BME280;5998;42.676;23.268;2022-07-06T04:46:51;94828.41;;;19.95;100.00
11878;BME280;5998;42.676;23.268;2022-07-06T04:49:17;94848.56;;;20.26;100.00
11878;BME280;5998;42.676;23.268;2022-07-06T04:51:44;94867.41;;;20.07;100.00
11878;BME280;5998;42.676;23.268;2022-07-06T04:54:11;94870.50;;;20.09;100.00
11878;BME280;5998;42.676;23.268;2022-07-06T04:56:37;94868.56;;;20.06;100.00
11878;BME280;5998;42.676;23.268;2022-07-06T04:59:04;94867.75;;;20.12;100.00
11878;BME280;5998;42.676;23.268;2022-07-06T05:01:31;94871.09;;;20.51;100.00
11878;BME280;5998;42.676;23.268;2022-07-06T05:03:59;94869.59;;;20.36;100.00
11878;BME280;5998;42.676;23.268;2022-07-06T05:06:26;94862.19;;;20.37;100.00
11878;BME280;5998;42.676;23.268;2022-07-06T05:08:52;94872.50;;;20.70;100.00
11878;BME280;5998;42.676;23.268;2022-07-06T05:11:19;94879.06;;;20.14;100.00
11878;BME280;5998;42.676;23.268;2022-07-06T05:13:46;94882.47;;;20.39;100.00
11878;BME280;5998;42.676;23.268;2022-07-06T05:16:13;94882.22;;;20.13;100.00
11878;BME280;5998;42.676;23.268;2022-07-06T05:18:40;94860.25;;;20.30;100.00
11878;BME280;5998;42.676;23.268;2022-07-06T05:21:08;94877.78;;;20.43;100.00
11878;BME280;5998;42.676;23.268;2022-07-06T05:23:35;94879.31;;;20.44;100.00
11878;BME280;5998;42.676;23.268;2022-07-06T05:26:02;94898.56;;;20.89;100.00
11878;BME280;5998;42.676;23.268;2022-07-06T05:28:28;94875.88;;;20.88;100.00
11878;BME280;5998;42.676;23.268;2022-07-06T05:30:55;94892.19;;;20.99;100.00
11878;BME280;5998;42.676;23.268;2022-07-06T05:33:24;94862.56;;;20.90;100.00
11878;BME280;5998;42.676;23.268;2022-07-06T05:35:50;94879.38;;;21.37;100.00
11878;BME280;5998;42.676;23.268;2022-07-06T05:38:19;94860.59;;;21.72;100.00
11878;BME280;5998;42.676;23.268;2022-07-06T05:40:46;94855.19;;;21.65;100.00
11878;BME280;5998;42.676;23.268;2022-07-06T05:43:13;94882.28;;;21.56;100.00
11878;BME280;5998;42.676;23.268;2022-07-06T05:45:39;94896.38;;;21.58;100.00
11878;BME280;5998;42.676;23.268;2022-07-06T05:48:06;94891.34;;;21.91;100.00
11878;BME280;5998;42.676;23.268;2022-07-06T05:50:50;94883.09;;;21.94;100.00
11878;BME280;5998;42.676;23.268;2022-07-06T05:53:18;94865.31;;;21.68;100.00
11878;BME280;5998;42.676;23.268;2022-07-06T05:55:45;94891.19;;;21.30;100.00
11878;BME280;5998;42.676;23.268;2022-07-06T05:58:12;94858.13;;;21.07;100.00
11878;BME280;5998;42.676;23.268;2022-07-06T06:00:39;94876.38;;;21.24;100.00
11878;BME280;5998;42.676;23.268;2022-07-06T06:03:06;94890.38;;;21.33;100.00
11878;BME280;5998;42.676;23.268;2022-07-06T06:05:32;94886.69;;;21.50;100.00
11878;BME280;5998;42.676;23.268;2022-07-06T06:07:59;94898.72;;;21.56;100.00
11878;BME280;5998;42.676;23.268;2022-07-06T06:10:27;94886.84;;;21.33;100.00
11878;BME280;5998;42.676;23.268;2022-07-06T06:12:54;94884.41;;;20.97;100.00
11878;BME280;5998;42.676;23.268;2022-07-06T06:15:21;94892.88;;;20.66;100.00
11878;BME280;5998;42.676;23.268;2022-07-06T06:17:48;94889.88;;;20.46;100.00
11878;BME280;5998;42.676;23.268;2022-07-06T06:20:15;94873.13;;;20.37;100.00
11878;BME280;5998;42.676;23.268;2022-07-06T06:22:46;94895.00;;;20.37;100.00
11878;BME280;5998;42.676;23.268;2022-07-06T06:25:13;94881.53;;;20.64;100.00
11878;BME280;5998;42.676;23.268;2022-07-06T06:27:41;94895.19;;;20.71;100.00
11878;BME280;5998;42.676;23.268;2022-07-06T06:30:09;94895.28;;;20.56;100.00
11878;BME280;5998;42.676;23.268;2022-07-06T06:32:36;94891.22;;;20.79;100.00
11878;BME280;5998;42.676;23.268;2022-07-06T06:35:03;94890.22;;;20.51;100.00
11878;BME280;5998;42.676;23.268;2022-07-06T06:37:29;94892.53;;;20.60;100.00
11878;BME280;5998;42.676;23.268;2022-07-06T06:39:56;94895.25;;;20.60;100.00
11878;BME280;5998;42.676;23.268;2022-07-06T06:42:23;94885.22;;;20.36;100.00
11878;BME280;5998;42.676;23.268;2022-07-06T06:44:51;94887.16;;;20.39;100.00
11878;BME280;5998;42.676;23.268;2022-07-06T06:47:18;94884.22;;;20.71;100.00
11878;BME280;5998;42.676;23.268;2022-07-06T06:49:45;94880.13;;;21.37;100.00
11878;BME280;5998;42.676;23.268;2022-07-06T06:52:13;94838.03;;;21.24;100.00
11878;BME280;5998;42.676;23.268;2022-07-06T06:54:39;94873.97;;;21.26;100.00
11878;BME280;5998;42.676;23.268;2022-07-06T06:57:06;94876.38;;;21.61;100.00
11878;BME280;5998;42.676;23.268;2022-07-06T06:59:33;94875.59;;;21.61;100.00
11878;BME280;5998;42.676;23.268;2022-07-06T07:02:01;94862.16;;;21.36;100.00
11878;BME280;5998;42.676;23.268;2022-07-06T07:04:28;94876.13;;;21.04;100.00
11878;BME280;5998;42.676;23.268;2022-07-06T07:06:56;94873.38;;;21.08;100.00
11878;BME280;5998;42.676;23.268;2022-07-06T07:09:22;94874.84;;;21.20;100.00
11878;BME280;5998;42.676;23.268;2022-07-06T07:11:49;94876.34;;;21.28;100.00
11878;BME280;5998;42.676;23.268;2022-07-06T07:14:16;94889.88;;;20.97;100.00
11878;BME280;5998;42.676;23.268;2022-07-06T07:16:43;94887.78;;;20.68;100.00
11878;BME280;5998;42.676;23.268;2022-07-06T07:19:25;94888.38;;;20.89;100.00
11878;BME280;5998;42.676;23.268;2022-07-06T07:21:52;94877.03;;;21.35;100.00
11878;BME280;5998;42.676;23.268;2022-07-06T07:24:18;94871.66;;;21.28;100.00
11878;BME280;5998;42.676;23.268;2022-07-06T07:26:45;94864.97;;;22.00;100.00
11878;BME280;5998;42.676;23.268;2022-07-06T07:29:12;94854.72;;;22.34;100.00
11878;BME280;5998;42.676;23.268;2022-07-06T07:31:38;94845.34;;;22.32;100.00
11878;BME280;5998;42.676;23.268;2022-07-06T07:34:05;94870.72;;;22.40;100.00
11878;BME280;5998;42.676;23.268;2022-07-06T07:36:33;94877.63;;;21.91;100.00
11878;BME280;5998;42.676;23.268;2022-07-06T07:39:01;94873.94;;;22.04;100.00
11878;BME280;5998;42.676;23.268;2022-07-06T07:41:27;94873.84;;;21.77;100.00
11878;BME280;5998;42.676;23.268;2022-07-06T07:43:54;94866.00;;;22.13;100.00
11878;BME280;5998;42.676;23.268;2022-07-06T07:46:21;94867.25;;;22.36;100.00
11878;BME280;5998;42.676;23.268;2022-07-06T07:48:48;94863.88;;;22.24;100.00
11878;BME280;5998;42.676;23.268;2022-07-06T07:51:14;94862.78;;;22.45;100.00
11878;BME280;5998;42.676;23.268;2022-07-06T07:53:42;94861.13;;;22.51;100.00
11878;BME280;5998;42.676;23.268;2022-07-06T07:56:10;94873.66;;;21.95;100.00
11878;BME280;5998;42.676;23.268;2022-07-06T07:58:36;94871.31;;;22.24;100.00
11878;BME280;5998;42.676;23.268;2022-07-06T08:01:03;94861.25;;;22.44;100.00
11878;BME280;5998;42.676;23.268;2022-07-06T08:03:30;94858.94;;;23.16;100.00
11878;BME280;5998;42.676;23.268;2022-07-06T08:05:57;94853.63;;;23.71;100.00
11878;BME280;5998;42.676;23.268;2022-07-06T08:08:24;94847.94;;;23.62;100.00
11878;BME280;5998;42.676;23.268;2022-07-06T08:10:52;94864.75;;;23.44;100.00
11878;BME280;5998;42.676;23.268;2022-07-06T08:13:19;94859.41;;;23.96;100.00
11878;BME280;5998;42.676;23.268;2022-07-06T08:15:46;94858.34;;;23.71;100.00
11878;BME280;5998;42.676;23.268;2022-07-06T08:18:12;94860.72;;;24.12;100.00
11878;BME280;5998;42.676;23.268;2022-07-06T08:20:39;94855.25;;;23.69;100.00
11878;BME280;5998;42.676;23.268;2022-07-06T08:23:06;94860.97;;;23.78;100.00
11878;BME280;5998;42.676;23.268;2022-07-06T08:25:33;94851.66;;;23.91;100.00
11878;BME280;5998;42.676;23.268;2022-07-06T08:28:01;94857.88;;;24.51;100.00
11878;BME280;5998;42.676;23.268;2022-07-06T08:30:27;94858.38;;;24.98;100.00
11878;BME280;5998;42.676;23.268;2022-07-06T08:32:56;94852.56;;;24.76;100.00
11878;BME280;5998;42.676;23.268;2022-07-06T08:35:23;94854.94;;;24.42;100.00
11878;BME280;5998;42.676;23.268;2022-07-06T08:37:50;94849.22;;;24.69;100.00
11878;BME280;5998;42.676;23.268;2022-07-06T08:40:17;94848.06;;;24.86;100.00
11878;BME280;5998;42.676;23.268;2022-07-06T08:42:44;94850.72;;;25.21;100.00
11878;BME280;5998;42.676;23.268;2022-07-06T08:45:13;94849.13;;;25.53;100.00
11878;BME280;5998;42.676;23.268;2022-07-06T08:47:41;94831.94;;;25.90;100.00
11878;BME280;5998;42.676;23.268;2022-07-06T08:50:09;94841.31;;;25.64;100.00
11878;BME280;5998;42.676;23.268;2022-07-06T08:52:37;94858.69;;;25.32;100.00
11878;BME280;5998;42.676;23.268;2022-07-06T08:55:05;94862.44;;;25.70;100.00
11878;BME280;5998;42.676;23.268;2022-07-06T08:57:32;94849.00;;;25.85;100.00
11878;BME280;5998;42.676;23.268;2022-07-06T09:00:00;94849.38;;;26.41;100.00
11878;BME280;5998;42.676;23.268;2022-07-06T09:02:28;94852.50;;;26.68;100.00
11878;BME280;5998;42.676;23.268;2022-07-06T09:04:55;94851.69;;;26.43;100.00
11878;BME280;5998;42.676;23.268;2022-07-06T09:07:26;94860.97;;;25.95;100.00
11878;BME280;5998;42.676;23.268;2022-07-06T09:09:54;94854.47;;;25.60;100.00
11878;BME280;5998;42.676;23.268;2022-07-06T09:12:21;94858.59;;;25.36;100.00
11878;BME280;5998;42.676;23.268;2022-07-06T09:14:48;94851.97;;;25.78;100.00
11878;BME280;5998;42.676;23.268;2022-07-06T09:17:15;94842.75;;;25.97;100.00
11878;BME280;5998;42.676;23.268;2022-07-06T09:19:45;94849.81;;;25.41;100.00
11878;BME280;5998;42.676;23.268;2022-07-06T09:22:24;94852.50;;;24.63;100.00
11878;BME280;5998;42.676;23.268;2022-07-06T09:24:52;94853.94;;;24.52;100.00
11878;BME280;5998;42.676;23.268;2022-07-06T09:27:18;94855.97;;;24.12;100.00
11878;BME280;5998;42.676;23.268;2022-07-06T09:29:45;94853.97;;;23.93;100.00
11878;BME280;5998;42.676;23.268;2022-07-06T09:32:19;94851.31;;;23.70;100.00
11878;BME280;5998;42.676;23.268;2022-07-06T09:34:47;94846.22;;;23.68;100.00
11878;BME280;5998;42.676;23.268;2022-07-06T09:37:14;94873.50;;;24.38;100.00
11878;BME280;5998;42.676;23.268;2022-07-06T09:39:43;94853.63;;;24.30;100.00
11878;BME280;5998;42.676;23.268;2022-07-06T09:42:10;94853.06;;;24.39;100.00
11878;BME280;5998;42.676;23.268;2022-07-06T09:44:38;94852.22;;;24.22;100.00
11878;BME280;5998;42.676;23.268;2022-07-06T09:47:07;94850.75;;;24.18;100.00
11878;BME280;5998;42.676;23.268;2022-07-06T09:49:35;94841.56;;;23.65;100.00
11878;BME280;5998;42.676;23.268;2022-07-06T09:52:05;94833.91;;;23.33;100.00
11878;BME280;5998;42.676;23.268;2022-07-06T09:54:33;94842.16;;;23.57;100.00
11878;BME280;5998;42.676;23.268;2022-07-06T09:57:00;94831.56;;;23.55;100.00
11878;BME280;5998;42.676;23.268;2022-07-06T09:59:29;94841.06;;;23.90;100.00
11878;BME280;5998;42.676;23.268;2022-07-06T10:01:58;94835.00;;;23.98;100.00
11878;BME280;5998;42.676;23.268;2022-07-06T10:04:26;94842.94;;;24.16;100.00
11878;BME280;5998;42.676;23.268;2022-07-06T10:06:54;94848.63;;;24.05;100.00
11878;BME280;5998;42.676;23.268;2022-07-06T10:09:25;94841.91;;;24.06;100.00
11878;BME280;5998;42.676;23.268;2022-07-06T10:11:53;94837.56;;;23.89;100.00
11878;BME280;5998;42.676;23.268;2022-07-06T10:14:21;94840.47;;;24.38;100.00
11878;BME280;5998;42.676;23.268;2022-07-06T10:16:50;94830.00;;;24.65;100.00
11878;BME280;5998;42.676;23.268;2022-07-06T10:19:19;94833.25;;;24.80;100.00
11878;BME280;5998;42.676;23.268;2022-07-06T10:21:46;94789.41;;;24.69;100.00
11878;BME280;5998;42.676;23.268;2022-07-06T10:24:14;94829.09;;;24.72;100.00
11878;BME280;5998;42.676;23.268;2022-07-06T10:26:43;94824.69;;;24.74;100.00
11878;BME280;5998;42.676;23.268;2022-07-06T10:29:10;94827.78;;;24.76;100.00
11878;BME280;5998;42.676;23.268;2022-07-06T10:31:39;94832.13;;;24.93;100.00
11878;BME280;5998;42.676;23.268;2022-07-06T10:34:10;94806.63;;;25.21;100.00
11878;BME280;5998;42.676;23.268;2022-07-06T10:36:38;94793.38;;;25.00;100.00
11878;BME280;5998;42.676;23.268;2022-07-06T10:39:05;94822.63;;;25.27;100.00
11878;BME280;5998;42.676;23.268;2022-07-06T10:41:48;94813.38;;;25.33;100.00
11878;BME280;5998;42.676;23.268;2022-07-06T10:44:16;94825.84;;;25.54;100.00
11878;BME280;5998;42.676;23.268;2022-07-06T10:46:50;94816.50;;;25.35;100.00
11878;BME280;5998;42.676;23.268;2022-07-06T10:49:17;94801.91;;;25.51;100.00
11878;BME280;5998;42.676;23.268;2022-07-06T10:51:44;94835.25;;;25.56;100.00
11878;BME280;5998;42.676;23.268;2022-07-06T10:54:12;94827.66;;;24.99;100.00
11878;BME280;5998;42.676;23.268;2022-07-06T10:56:42;94822.78;;;25.19;100.00
11878;BME280;5998;42.676;23.268;2022-07-06T10:59:12;94819.47;;;25.98;100.00
11878;BME280;5998;42.676;23.268;2022-07-06T11:01:40;94820.00;;;26.34;100.00
11878;BME280;5998;42.676;23.268;2022-07-06T11:04:09;94828.16;;;25.55;100.00
11878;BME280;5998;42.676;23.268;2022-07-06T11:06:37;94818.31;;;25.70;100.00
11878;BME280;5998;42.676;23.268;2022-07-06T11:09:05;94807.84;;;25.33;100.00
11878;BME280;5998;42.676;23.268;2022-07-06T11:11:40;94818.75;;;25.08;100.00
11878;BME280;5998;42.676;23.268;2022-07-06T11:14:11;94815.94;;;25.40;100.00
11878;BME280;5998;42.676;23.268;2022-07-06T11:16:40;94812.94;;;25.51;100.00
11878;BME280;5998;42.676;23.268;2022-07-06T11:19:27;94818.16;;;25.00;100.00
11878;BME280;5998;42.676;23.268;2022-07-06T11:21:55;94808.72;;;25.30;100.00
11878;BME280;5998;42.676;23.268;2022-07-06T11:24:24;94811.94;;;25.57;100.00
11878;BME280;5998;42.676;23.268;2022-07-06T11:26:52;94815.13;;;26.13;100.00
11878;BME280;5998;42.676;23.268;2022-07-06T11:29:22;94808.53;;;26.36;100.00
11878;BME280;5998;42.676;23.268;2022-07-06T11:31:51;94809.44;;;26.04;100.00
11878;BME280;5998;42.676;23.268;2022-07-06T11:34:19;94805.19;;;26.16;100.00
11878;BME280;5998;42.676;23.268;2022-07-06T11:36:47;94803.22;;;25.88;100.00
11878;BME280;5998;42.676;23.268;2022-07-06T11:39:14;94804.22;;;25.36;100.00
11878;BME280;5998;42.676;23.268;2022-07-06T11:41:42;94788.38;;;26.10;100.00
11878;BME280;5998;42.676;23.268;2022-07-06T11:44:09;94788.41;;;26.35;100.00
11878;BME280;5998;42.676;23.268;2022-07-06T11:46:37;94785.97;;;26.75;100.00
11878;BME280;5998;42.676;23.268;2022-07-06T11:49:04;94782.34;;;26.41;100.00
11878;BME280;5998;42.676;23.268;2022-07-06T11:51:33;94778.94;;;26.36;100.00
11878;BME280;5998;42.676;23.268;2022-07-06T11:54:08;94771.28;;;26.41;100.00
11878;BME280;5998;42.676;23.268;2022-07-06T11:56:35;94770.06;;;26.29;100.00
11878;BME280;5998;42.676;23.268;2022-07-06T11:59:02;94776.25;;;26.33;100.00
11878;BME280;5998;42.676;23.268;2022-07-06T12:01:29;94769.66;;;26.30;100.00
11878;BME280;5998;42.676;23.268;2022-07-06T12:04:00;94780.66;;;26.18;100.00
11878;BME280;5998;42.676;23.268;2022-07-06T12:06:27;94747.34;;;26.25;100.00
11878;BME280;5998;42.676;23.268;2022-07-06T12:08:56;94775.38;;;26.36;100.00
11878;BME280;5998;42.676;23.268;2022-07-06T12:11:26;94766.88;;;26.30;100.00
11878;BME280;5998;42.676;23.268;2022-07-06T12:13:54;94768.19;;;26.38;100.00
11878;BME280;5998;42.676;23.268;2022-07-06T12:16:27;94780.47;;;26.25;100.00
11878;BME280;5998;42.676;23.268;2022-07-06T12:18:54;94784.44;;;26.24;100.00
11878;BME280;5998;42.676;23.268;2022-07-06T12:21:22;94777.53;;;26.03;100.00
11878;BME280;5998;42.676;23.268;2022-07-06T12:23:51;94775.69;;;25.71;100.00
11878;BME280;5998;42.676;23.268;2022-07-06T12:26:20;94784.16;;;25.52;100.00
11878;BME280;5998;42.676;23.268;2022-07-06T12:28:59;94775.44;;;25.08;100.00
11878;BME280;5998;42.676;23.268;2022-07-06T12:31:33;94786.81;;;25.10;100.00
11878;BME280;5998;42.676;23.268;2022-07-06T12:34:01;94780.50;;;25.55;100.00
11878;BME280;5998;42.676;23.268;2022-07-06T12:36:29;94789.69;;;25.52;100.00
11878;BME280;5998;42.676;23.268;2022-07-06T12:38:55;94779.41;;;25.52;100.00
11878;BME280;5998;42.676;23.268;2022-07-06T12:41:27;94775.69;;;25.71;100.00
11878;BME280;5998;42.676;23.268;2022-07-06T12:44:04;94770.81;;;25.63;100.00
11878;BME280;5998;42.676;23.268;2022-07-06T12:46:33;94765.19;;;25.95;100.00
11878;BME280;5998;42.676;23.268;2022-07-06T12:49:02;94757.34;;;26.06;100.00
11878;BME280;5998;42.676;23.268;2022-07-06T12:51:48;94753.63;;;26.38;100.00
11878;BME280;5998;42.676;23.268;2022-07-06T12:54:16;94749.84;;;26.32;100.00